Detalii statie AFILIU TRANS MIZIL [00001982]

Toti senzorii

Date Temperatura solului [C]Precipitatii [mm]Voltaj baterie [mV]Leaf Wetness [Min]HC Air temperature [C]HC Relative humidity [%]Punctul de roua [C]
medieminmaxsumaultimatimpmedieminmaxmediemediemin
2019-10-19 23:00:00 0 6844 10.56 9.97 10.99 100 10.5 9.9
2019-10-20 00:00:00 0 6844 9.61 9.38 9.9 100 9.5 9.3
2019-10-20 01:00:00 0 6806 8.73 8.27 9.43 100 8.6 8.2
2019-10-20 02:00:00 0 6796 8.03 7.71 8.3 100 8 7.7
2019-10-20 03:00:00 0 6786 8.2 7.72 8.41 100 8.1 7.7
2019-10-20 04:00:00 0 6796 7.69 7.24 8.27 100 7.6 7.2
2019-10-20 05:00:00 0 6776 7.59 7.17 8.37 100 7.5 7.1
2019-10-20 06:00:00 0 6786 7.84 7.52 8.35 100 7.8 7.5
2019-10-20 07:00:00 0 6766 7.76 7.53 7.98 100 7.7 7.5
2019-10-20 08:00:00 0 6884 8.37 7.88 9.67 100 8.3 7.8
2019-10-20 09:00:00 0 7216 10.52 9.56 12.08 100 10.4 9.5
2019-10-20 10:00:00 0 7226 14.05 12.48 15.08 96.97 13.4 12.4
2019-10-20 11:00:00 0 7216 15.18 14.73 16.07 88.52 13.1 12.6
2019-10-20 12:00:00 0 7216 16.6 16.05 17.65 87.38 14.3 13.9
2019-10-20 13:00:00 0 7216 18.36 17.44 19.44 80.33 14.8 14.3
2019-10-20 14:00:00 0 7216 20.47 19.67 21.06 69.32 14.5 14
2019-10-20 15:00:00 0 7216 21.94 21 22.83 61.06 13.9 13.3
2019-10-20 16:00:00 0 7216 22.56 22.21 22.99 55.95 13.1 12.5
2019-10-20 17:00:00 0 7186 20.25 18.07 21.84 64.95 13.2 12.9
2019-10-20 18:00:00 0 7060 15.56 13.75 17.6 87.13 13.2 12.4
2019-10-20 19:00:00 0 6932 13.56 12.87 14.14 98.2 13.1 12.5
2019-10-20 20:00:00 0 6816 13.35 12.35 14.11 95.04 12.4 11.5
2019-10-20 21:00:00 0 6806 12.11 11.71 12.55 99.68 12 11.7
2019-10-20 22:00:00 0 6806 11.4 11.1 11.63 100 11.3 11.1
2019-10-20 23:00:00 0 6756 11.09 10.87 11.34 100 11 10.8
2019-10-21 00:00:00 0 6766 11.11 11.01 11.31 100 11 11
2019-10-21 01:00:00 0 6756 10.62 9.93 11.37 100 10.5 9.9
2019-10-21 02:00:00 0 6776 9.42 8.97 9.78 100 9.3 8.9
2019-10-21 03:00:00 0 6766 8.67 8.19 9.19 100 8.6 8.1
2019-10-21 04:00:00 0 6756 8.06 7.83 8.19 100 8 7.8
2019-10-21 05:00:00 0 6766 7.79 7.35 8.24 100 7.7 7.3
2019-10-21 06:00:00 0 6756 7.5 7.27 8.2 100 7.4 7.2
2019-10-21 07:00:00 0 6756 8.51 8.29 8.74 100 8.4 8.2
2019-10-21 08:00:00 0 6806 9.06 8.54 9.69 100 9 8.5
2019-10-21 09:00:00 0 7020 10.47 9.81 11.12 100 10.4 9.8
2019-10-21 10:00:00 0 7206 11.92 11.16 12.6 100 11.8 11.1
2019-10-21 11:00:00 0 7216 12.75 12.22 13.31 100 12.7 12.2
2019-10-21 12:00:00 0 7216 13.85 13.31 14.65 100 13.8 13.3
2019-10-21 13:00:00 0 7216 15.71 14.71 17.19 100 15.6 14.7
2019-10-21 14:00:00 0 7216 17.96 17.1 18.61 87.38 15.6 15
2019-10-21 15:00:00 0 7216 19.43 18.91 19.86 75.31 14.7 14.3